aviador You're here:

KLBX Decoded Metar

ANGLETON in TX, USA
Report Time2017-03-23 23:53:00
UTC Time2017-03-24 00:03:08
Flight Rules vfr VFR
Wind160° at 16 Gusting to 22 kt
W.Decomp.*RWY 17: 15.5 kt HW 4.1 kt LCW
W.Rank160° ranks 4
Current wind is above 160° avg. (9.9)
Visibility9999 m
Phenomena:N/A
Clouds:Scattered 027 Hf
Scattered 033 Hf
Expected CloudBase > 2,400 ft AGL from Temp-Dew spread
CeilingNone
Temp24°C (ISA +9)
Dew Point18°C (69% RH)
AAT21.0°C
QNH1018 hPa
Density Alt1,175 ft
Elevation20 ft
Report Wrong Elevation
Raw Report
KLBX 232353Z AUTO 16016G22KT 10SM SCT027 SCT033 24/18 A3006 RMK
AO2 SLP178 T02390178 10278 20233 56010=

Extra information for KLBX:More info

Metar Taf Metar & Taf Last 4 Metars F.Rules Stats Wind Profile Meteogram Temp Stats Airport Information Weather charts Add Link Nearby VenuesMetar ALERT Operation Metar Decoded Social comments

AIRNAV info for KLBX